createdAt,value
2023-04-14T00:01:50.662Z,24.73
2023-04-14T00:04:20.216Z,28.33
2023-04-14T00:06:49.255Z,31.93
2023-04-14T00:09:18.251Z,25.13
2023-04-14T00:11:49.684Z,30.53
2023-04-14T00:14:18.885Z,27.77
2023-04-14T00:16:47.947Z,29.63
2023-04-14T00:19:17.034Z,27.07
2023-04-14T00:21:46.014Z,26.60
2023-04-14T00:24:15.271Z,30.83
2023-04-14T00:26:44.226Z,30.83
2023-04-14T00:29:14.700Z,47.23
2023-04-14T00:31:44.372Z,49.60
2023-04-14T00:34:13.676Z,45.73
2023-04-14T00:36:42.634Z,28.37
2023-04-14T00:39:11.540Z,32.07
2023-04-14T00:41:40.633Z,40.83
2023-04-14T00:44:09.562Z,30.87
2023-04-14T00:46:42.189Z,29.57
2023-04-14T00:49:11.516Z,23.37
2023-04-14T00:51:40.598Z,28.93
2023-04-14T00:54:11.136Z,26.83
2023-04-14T00:56:40.960Z,24.80
2023-04-14T00:59:11.401Z,28.53
2023-04-14T01:01:48.056Z,40.47
2023-04-14T01:04:23.338Z,32.80
2023-04-14T01:06:54.326Z,30.10
2023-04-14T01:09:41.614Z,33.10
2023-04-14T01:12:23.284Z,25.00
2023-04-14T01:15:06.977Z,26.93
2023-04-14T01:17:45.724Z,23.87
2023-04-14T01:20:24.447Z,58.13
2023-04-14T01:22:59.437Z,32.17
2023-04-14T01:25:56.788Z,30.53
2023-04-14T01:28:43.940Z,30.70
2023-04-14T01:31:34.052Z,26.10
2023-04-14T01:34:26.813Z,23.87
2023-04-14T01:37:03.844Z,38.67
2023-04-14T01:39:37.235Z,33.27
2023-04-14T01:42:10.674Z,19.03
2023-04-14T01:44:42.089Z,22.47
2023-04-14T01:47:16.925Z,25.47
2023-04-14T01:49:49.030Z,21.03
2023-04-14T01:52:20.649Z,19.23
2023-04-14T01:54:53.876Z,20.97
2023-04-14T01:57:24.343Z,26.00
2023-04-14T01:59:55.290Z,20.83
2023-04-14T02:02:27.783Z,22.40
2023-04-14T02:04:58.553Z,26.77
2023-04-14T02:07:29.628Z,17.27
2023-04-14T02:10:00.046Z,15.07
2023-04-14T02:12:31.784Z,18.57
2023-04-14T02:15:03.047Z,19.60
2023-04-14T02:17:36.315Z,20.40
2023-04-14T02:20:07.562Z,15.97
2023-04-14T02:22:36.750Z,32.50
2023-04-14T02:25:06.062Z,162.67
2023-04-14T02:27:39.706Z,36.40
2023-04-14T02:30:13.881Z,30.27
2023-04-14T02:32:51.252Z,14.27
2023-04-14T02:35:27.110Z,36.97
2023-04-14T02:38:05.546Z,19.80
2023-04-14T02:40:39.729Z,17.00
2023-04-14T02:43:14.736Z,19.10
2023-04-14T02:45:47.262Z,18.33
2023-04-14T02:48:20.035Z,19.67
2023-04-14T02:50:52.114Z,20.03
2023-04-14T02:53:26.856Z,18.30
2023-04-14T02:56:19.201Z,17.83
2023-04-14T02:58:50.529Z,17.60
2023-04-14T03:01:21.539Z,21.27
2023-04-14T03:03:56.421Z,20.33
2023-04-14T03:06:27.638Z,33.20
2023-04-14T03:08:59.431Z,25.93
2023-04-14T03:11:30.298Z,25.67
2023-04-14T03:14:00.306Z,21.47
2023-04-14T03:16:31.362Z,23.80
2023-04-14T03:19:05.487Z,22.47
2023-04-14T03:21:55.502Z,19.87
2023-04-14T03:24:27.607Z,32.00
2023-04-14T03:27:02.608Z,26.87
2023-04-14T03:29:38.072Z,21.27
2023-04-14T03:32:08.770Z,21.90
2023-04-14T03:34:46.727Z,24.90
2023-04-14T03:37:19.009Z,38.73
2023-04-14T03:39:52.224Z,39.40
2023-04-14T03:42:22.712Z,25.37
2023-04-14T03:44:54.506Z,23.00
2023-04-14T03:47:24.904Z,30.67
2023-04-14T03:49:59.887Z,24.77
2023-04-14T03:52:32.651Z,29.10
2023-04-14T03:55:06.784Z,31.03
2023-04-14T03:57:40.891Z,32.57
2023-04-14T04:00:14.249Z,30.90
2023-04-14T04:03:02.650Z,22.13
2023-04-14T04:05:33.921Z,30.10
2023-04-14T04:08:04.649Z,35.30
2023-04-14T04:10:36.270Z,31.43
2023-04-14T04:13:08.609Z,32.73
2023-04-14T04:15:39.304Z,26.37
2023-04-14T04:18:10.039Z,32.93
2023-04-14T04:20:43.779Z,51.83
2023-04-14T04:23:13.831Z,32.43
2023-04-14T04:25:43.642Z,23.43
2023-04-14T04:28:31.075Z,36.27
2023-04-14T04:31:01.820Z,50.07
2023-04-14T04:33:32.888Z,48.83
2023-04-14T04:36:06.735Z,39.77
2023-04-14T04:38:41.338Z,31.77
2023-04-14T04:41:21.785Z,31.50
2023-04-14T04:43:51.958Z,34.73
2023-04-14T04:46:37.727Z,20.57
2023-04-14T04:49:06.921Z,20.50
2023-04-14T04:51:37.702Z,16.80
2023-04-14T04:54:07.246Z,19.80
2023-04-14T04:56:36.529Z,24.40
2023-04-14T04:59:06.075Z,23.73
2023-04-14T05:01:35.291Z,29.97
2023-04-14T05:04:04.444Z,31.93
2023-04-14T05:06:38.597Z,27.20
2023-04-14T05:09:07.927Z,26.37
2023-04-14T05:11:37.086Z,26.60
2023-04-14T05:14:26.297Z,22.50
2023-04-14T05:16:57.159Z,37.63
2023-04-14T05:19:26.210Z,38.37
2023-04-14T05:21:57.608Z,55.43
2023-04-14T05:24:26.764Z,40.83
2023-04-14T05:27:13.047Z,34.73
2023-04-14T05:29:43.593Z,49.50
2023-04-14T05:32:14.694Z,28.53
2023-04-14T05:34:46.109Z,44.20
2023-04-14T05:37:17.190Z,60.50
2023-04-14T05:39:46.495Z,33.70
2023-04-14T05:42:15.701Z,33.67
2023-04-14T05:44:51.766Z,36.80
2023-04-14T05:47:22.091Z,33.17
2023-04-14T05:50:00.049Z,32.23
2023-04-14T05:52:31.011Z,38.03
2023-04-14T05:55:00.029Z,51.07
2023-04-14T05:57:28.994Z,53.73
2023-04-14T05:59:58.410Z,66.90
2023-04-14T06:02:31.942Z,43.63
2023-04-14T06:05:02.525Z,32.00
2023-04-14T06:07:33.066Z,56.67
2023-04-14T06:10:02.388Z,60.53
2023-04-14T06:12:42.490Z,23.43
2023-04-14T06:15:11.858Z,40.67
2023-04-14T06:17:41.234Z,25.23
2023-04-14T06:20:16.241Z,46.27
2023-04-14T06:22:47.940Z,31.60
2023-04-14T06:25:17.174Z,41.60
2023-04-14T06:27:46.002Z,23.87
2023-04-14T06:30:17.318Z,49.43
2023-04-14T06:32:46.746Z,43.30
2023-04-14T06:35:32.259Z,47.23
2023-04-14T06:38:03.321Z,27.27
2023-04-14T06:40:32.375Z,28.37
2023-04-14T06:43:02.530Z,80.77
2023-04-14T06:45:31.410Z,42.70
2023-04-14T06:48:00.551Z,35.97
2023-04-14T06:50:29.452Z,46.73
2023-04-14T06:52:58.372Z,25.53
2023-04-14T06:55:30.418Z,54.53
2023-04-14T06:58:01.066Z,25.47
2023-04-14T07:00:30.439Z,39.47
2023-04-14T07:02:59.444Z,45.80
2023-04-14T07:05:28.451Z,34.73
2023-04-14T07:07:57.636Z,23.43
2023-04-14T07:10:28.120Z,25.83
2023-04-14T07:12:57.048Z,28.50
2023-04-14T07:15:54.107Z,21.00
2023-04-14T07:18:26.538Z,23.53
2023-04-14T07:20:55.920Z,34.13
2023-04-14T07:23:24.863Z,24.20
2023-04-14T07:25:56.842Z,21.83
2023-04-14T07:28:27.053Z,21.87
2023-04-14T07:30:56.964Z,31.93
2023-04-14T07:33:27.223Z,25.43
2023-04-14T07:36:01.923Z,32.13
2023-04-14T07:38:38.372Z,13.20
2023-04-14T07:41:09.993Z,63.97
2023-04-14T07:43:40.266Z,26.40
2023-04-14T07:46:28.045Z,39.93
2023-04-14T07:48:57.144Z,26.17
2023-04-14T07:51:26.310Z,32.00
2023-04-14T07:53:59.906Z,38.30
2023-04-14T07:56:34.663Z,27.33
2023-04-14T07:59:09.076Z,17.90
2023-04-14T08:01:39.015Z,25.97
2023-04-14T08:04:08.387Z,17.53
2023-04-14T08:06:37.885Z,30.17
2023-04-14T08:09:07.202Z,11.77
2023-04-14T08:11:37.603Z,23.17
2023-04-14T08:14:06.661Z,19.27
2023-04-14T08:16:37.000Z,47.20
2023-04-14T08:19:06.485Z,58.20
2023-04-14T08:21:35.474Z,27.97
2023-04-14T08:24:06.701Z,38.17
2023-04-14T08:26:37.228Z,23.80
2023-04-14T08:29:06.356Z,91.50
2023-04-14T08:31:35.455Z,25.20
2023-04-14T08:34:04.670Z,35.27
2023-04-14T08:36:33.655Z,25.33
2023-04-14T08:39:02.726Z,13.27
2023-04-14T08:41:36.581Z,29.37
2023-04-14T08:44:05.713Z,17.53
2023-04-14T08:46:35.087Z,26.77
2023-04-14T08:49:06.670Z,21.40
2023-04-14T08:51:37.572Z,54.93
2023-04-14T08:54:25.355Z,20.73
2023-04-14T08:56:58.887Z,16.40
2023-04-14T08:59:30.316Z,19.27
2023-04-14T09:02:07.210Z,29.17
2023-04-14T09:04:55.490Z,34.07
2023-04-14T09:07:24.694Z,46.57
2023-04-14T09:09:53.858Z,29.07
2023-04-14T09:12:27.506Z,15.00
2023-04-14T09:14:58.363Z,24.70
2023-04-14T09:17:29.900Z,47.73
2023-04-14T09:20:36.434Z,37.03
2023-04-14T09:22:48.574Z,62.27
2023-04-14T09:25:20.029Z,33.27
2023-04-14T09:27:51.571Z,38.80
2023-04-14T09:30:21.077Z,25.40
2023-04-14T09:32:53.800Z,33.53
2023-04-14T09:35:23.140Z,13.43
2023-04-14T09:37:52.292Z,23.57
2023-04-14T09:40:31.326Z,23.17
2023-04-14T09:43:02.928Z,6.43
2023-04-14T09:45:48.049Z,47.67
2023-04-14T09:48:17.130Z,32.30
2023-04-14T09:51:00.136Z,17.73
2023-04-14T09:53:33.028Z,56.07
2023-04-14T09:56:05.197Z,25.20
2023-04-14T09:58:37.770Z,46.00
2023-04-14T10:01:13.053Z,39.80
2023-04-14T10:03:43.638Z,23.40
2023-04-14T10:06:21.074Z,10.23
2023-04-14T10:08:51.823Z,18.87
2023-04-14T10:11:22.055Z,20.73
2023-04-14T10:14:11.039Z,18.90
2023-04-14T10:16:40.214Z,18.83
2023-04-14T10:19:09.218Z,39.93
2023-04-14T10:21:38.098Z,47.73
2023-04-14T10:24:07.420Z,21.20
2023-04-14T10:26:37.412Z,28.30
2023-04-14T10:29:06.737Z,9.70
2023-04-14T10:31:42.925Z,8.67
2023-04-14T10:34:14.242Z,11.23
2023-04-14T10:36:43.925Z,15.57
2023-04-14T10:39:14.275Z,23.37
2023-04-14T10:41:50.472Z,10.50
2023-04-14T10:44:27.305Z,11.43
2023-04-14T10:46:58.156Z,9.70
2023-04-14T10:49:31.958Z,14.77
2023-04-14T10:52:03.432Z,12.17
2023-04-14T10:54:53.697Z,10.23
2023-04-14T10:57:24.471Z,34.63
2023-04-14T10:59:57.392Z,13.63
2023-04-14T11:02:30.343Z,15.87
2023-04-14T11:05:01.287Z,25.00
2023-04-14T11:07:31.493Z,19.53
2023-04-14T11:10:05.366Z,35.40
2023-04-14T11:12:44.765Z,17.87
2023-04-14T11:15:14.239Z,8.77
2023-04-14T11:17:45.566Z,13.90
2023-04-14T11:20:18.386Z,34.27
2023-04-14T11:22:48.907Z,100.50
2023-04-14T11:25:23.026Z,19.50
2023-04-14T11:27:53.465Z,12.47
2023-04-14T11:30:23.089Z,21.67
2023-04-14T11:32:54.951Z,48.27
2023-04-14T11:35:26.440Z,49.87
2023-04-14T11:37:56.263Z,57.60
2023-04-14T11:40:26.702Z,41.47
2023-04-14T11:42:57.473Z,86.77
2023-04-14T11:45:45.380Z,35.30
2023-04-14T11:48:18.513Z,23.23
2023-04-14T11:51:06.477Z,31.17
2023-04-14T11:53:35.460Z,34.47
2023-04-14T11:56:04.613Z,15.07
2023-04-14T11:58:34.092Z,27.23
2023-04-14T12:01:03.061Z,10.43
2023-04-14T12:03:35.880Z,37.33
2023-04-14T12:06:05.909Z,17.20
2023-04-14T12:08:35.212Z,22.33
2023-04-14T12:11:14.825Z,26.67
2023-04-14T12:13:44.716Z,37.40
2023-04-14T12:16:15.234Z,34.97
2023-04-14T12:18:46.173Z,40.10
2023-04-14T12:21:34.144Z,28.93
2023-04-14T12:24:03.122Z,73.73
2023-04-14T12:26:32.803Z,42.27
2023-04-14T12:29:02.529Z,41.33
2023-04-14T12:31:32.090Z,24.40
2023-04-14T12:34:06.694Z,158.83
2023-04-14T12:39:08.276Z,45.00
2023-04-14T12:41:42.220Z,39.47
2023-04-14T12:44:16.923Z,65.30
2023-04-14T12:46:50.192Z,29.50
2023-04-14T12:49:34.730Z,27.17
2023-04-14T12:52:04.091Z,21.70
2023-04-14T12:54:53.220Z,14.70
2023-04-14T12:57:22.975Z,19.97
2023-04-14T12:59:52.172Z,14.00
2023-04-14T13:02:24.640Z,12.93
2023-04-14T13:04:55.335Z,19.03
2023-04-14T13:07:24.690Z,20.77
2023-04-14T13:09:54.323Z,11.20
2023-04-14T13:12:23.360Z,11.33
2023-04-14T13:14:53.239Z,13.77
2023-04-14T13:17:22.428Z,25.90
2023-04-14T13:19:51.712Z,11.43
2023-04-14T13:22:22.045Z,25.23
2023-04-14T13:24:51.971Z,22.03
2023-04-14T13:27:21.432Z,20.63
2023-04-14T13:29:50.758Z,36.00
2023-04-14T13:32:19.915Z,31.70
2023-04-14T13:34:49.202Z,19.37
2023-04-14T13:37:19.598Z,15.97
2023-04-14T13:39:50.310Z,22.13
2023-04-14T13:42:19.223Z,35.43
2023-04-14T13:44:48.349Z,23.73
2023-04-14T13:47:19.040Z,29.73
2023-04-14T13:49:48.035Z,31.03
2023-04-14T13:52:17.249Z,22.47
2023-04-14T13:54:46.206Z,19.33
2023-04-14T13:57:16.698Z,11.17
2023-04-14T13:59:46.333Z,18.67
2023-04-14T14:02:15.725Z,17.70
2023-04-14T14:04:44.970Z,6.37
2023-04-14T14:07:14.100Z,7.47
2023-04-14T14:09:44.560Z,14.57
2023-04-14T14:12:17.277Z,20.23
2023-04-14T14:14:47.238Z,13.33
2023-04-14T14:17:17.182Z,25.37
2023-04-14T14:19:46.198Z,35.20
2023-04-14T14:22:15.116Z,17.77
2023-04-14T14:24:44.084Z,16.40
2023-04-14T14:27:13.078Z,13.20
2023-04-14T14:29:43.530Z,12.63
2023-04-14T14:32:12.617Z,29.57
2023-04-14T14:34:41.540Z,17.67
2023-04-14T14:37:10.487Z,21.83
2023-04-14T14:39:39.672Z,20.67
2023-04-14T14:42:11.986Z,17.57
2023-04-14T14:44:42.496Z,24.03
2023-04-14T14:47:11.510Z,14.93
2023-04-14T14:49:46.196Z,9.40
2023-04-14T14:52:29.552Z,26.47
2023-04-14T14:54:58.603Z,15.80
2023-04-14T14:57:28.654Z,23.33
2023-04-14T14:59:59.187Z,27.20
2023-04-14T15:02:28.360Z,33.37
2023-04-14T15:04:57.483Z,28.53
2023-04-14T15:07:26.485Z,23.47
2023-04-14T15:09:55.668Z,23.63
2023-04-14T15:12:24.649Z,26.87
2023-04-14T15:14:53.684Z,20.80
2023-04-14T15:17:24.392Z,31.93
2023-04-14T15:19:53.555Z,19.60
2023-04-14T15:22:22.723Z,14.57
2023-04-14T15:24:51.822Z,22.73
2023-04-14T15:27:20.789Z,10.47
2023-04-14T15:29:49.796Z,18.07
2023-04-14T15:32:24.501Z,15.83
2023-04-14T15:34:55.948Z,28.63
2023-04-14T15:37:26.342Z,37.90
2023-04-14T15:39:55.381Z,32.97
2023-04-14T15:42:24.357Z,30.90
2023-04-14T15:44:53.382Z,19.50
2023-04-14T15:47:22.381Z,24.47
2023-04-14T15:50:00.616Z,25.80
2023-04-14T15:52:40.499Z,21.50
2023-04-14T15:55:12.048Z,13.87
2023-04-14T15:57:41.087Z,42.30
2023-04-14T16:00:11.228Z,32.30
2023-04-14T16:02:46.216Z,23.00
2023-04-14T16:05:15.606Z,21.17
2023-04-14T16:07:46.773Z,32.43
2023-04-14T16:10:15.921Z,41.73
2023-04-14T16:12:45.021Z,54.37
2023-04-14T16:15:14.163Z,18.43
2023-04-14T16:17:43.796Z,14.83
2023-04-14T16:20:13.819Z,23.23
2023-04-14T16:22:42.709Z,78.77
2023-04-14T16:25:13.421Z,54.40
2023-04-14T16:27:42.940Z,66.17
2023-04-14T16:30:13.126Z,74.13
2023-04-14T16:32:42.224Z,83.30
2023-04-14T16:35:12.119Z,36.23
2023-04-14T16:37:41.260Z,91.87
2023-04-14T16:40:12.821Z,95.30
2023-04-14T16:42:41.846Z,218.87
2023-04-14T16:45:11.544Z,379.07
2023-04-14T16:47:40.930Z,283.00
2023-04-14T16:50:10.555Z,286.43
2023-04-14T16:52:39.453Z,164.00
2023-04-14T16:55:09.146Z,141.13
2023-04-14T16:57:39.526Z,97.83
2023-04-14T17:00:12.413Z,153.57
2023-04-14T17:02:42.945Z,228.57
2023-04-14T17:05:16.374Z,170.50
2023-04-14T17:07:47.094Z,90.60
2023-04-14T17:10:16.486Z,81.40
2023-04-14T17:12:47.448Z,80.00
2023-04-14T17:15:17.451Z,44.10
2023-04-14T17:17:46.753Z,29.20
2023-04-14T17:20:16.362Z,21.37
2023-04-14T17:23:04.164Z,37.70
2023-04-14T17:25:35.885Z,36.77
2023-04-14T17:28:11.420Z,42.87
2023-04-14T17:30:40.850Z,33.93
2023-04-14T17:33:10.830Z,39.87
2023-04-14T17:35:39.972Z,54.40
2023-04-14T17:38:09.173Z,44.83
2023-04-14T17:40:38.153Z,41.50
2023-04-14T17:43:08.758Z,54.07
2023-04-14T17:45:40.298Z,70.50
2023-04-14T17:48:09.791Z,64.27
2023-04-14T17:50:39.077Z,66.70
2023-04-14T17:53:09.131Z,59.20
2023-04-14T17:55:38.965Z,54.40
2023-04-14T17:58:10.402Z,58.63
2023-04-14T18:00:40.508Z,74.50
2023-04-14T18:03:09.818Z,91.73
2023-04-14T18:05:38.997Z,108.80
2023-04-14T18:08:08.455Z,111.27
2023-04-14T18:10:38.246Z,91.03
2023-04-14T18:13:09.899Z,97.33
2023-04-14T18:15:42.836Z,91.17
2023-04-14T18:18:12.018Z,108.30
2023-04-14T18:20:41.664Z,114.80
2023-04-14T18:23:10.850Z,78.23
2023-04-14T18:28:13.738Z,76.30
2023-04-14T18:30:42.883Z,72.97
2023-04-14T18:33:15.372Z,77.13
2023-04-14T18:35:44.544Z,109.17
2023-04-14T18:38:13.924Z,109.27
2023-04-14T18:40:42.920Z,129.43
2023-04-14T18:43:22.087Z,133.23
2023-04-14T18:45:51.742Z,140.27
2023-04-14T18:48:20.930Z,134.73
2023-04-14T18:50:57.582Z,138.83
2023-04-14T18:53:26.838Z,150.53
2023-04-14T18:55:55.895Z,135.27
2023-04-14T18:58:26.348Z,148.23
2023-04-14T19:00:55.534Z,142.53
2023-04-14T19:03:24.691Z,104.33
2023-04-14T19:05:55.564Z,110.27
2023-04-14T19:08:43.276Z,97.40
2023-04-14T19:11:12.454Z,91.37
2023-04-14T19:13:43.979Z,93.23
2023-04-14T19:16:14.043Z,71.90
2023-04-14T19:19:02.210Z,61.40
2023-04-14T19:21:32.204Z,76.47
2023-04-14T19:24:01.182Z,88.67
2023-04-14T19:26:31.033Z,160.80
2023-04-14T19:29:01.838Z,110.37
2023-04-14T19:31:31.566Z,75.30
2023-04-14T19:34:00.855Z,108.27
2023-04-14T19:36:32.519Z,67.37
2023-04-14T19:39:01.925Z,56.93
2023-04-14T19:41:31.125Z,56.33
2023-04-14T19:44:04.405Z,51.83
2023-04-14T19:46:35.893Z,46.60
2023-04-14T19:49:05.710Z,39.40
2023-04-14T19:51:36.876Z,41.90
2023-04-14T19:54:07.647Z,35.63
2023-04-14T19:56:37.120Z,38.10
2023-04-14T19:59:08.451Z,38.57
2023-04-14T20:01:38.604Z,38.20
2023-04-14T20:04:12.334Z,47.10
2023-04-14T20:06:43.071Z,71.80
2023-04-14T20:09:12.374Z,61.33
2023-04-14T20:11:41.296Z,57.50
2023-04-14T20:14:11.659Z,97.73
2023-04-14T20:16:40.889Z,54.17
2023-04-14T20:19:10.210Z,59.07
2023-04-14T20:21:40.010Z,57.87
2023-04-14T20:24:08.998Z,63.03
2023-04-14T20:26:42.791Z,65.67
2023-04-14T20:29:13.470Z,60.23
2023-04-14T20:31:44.419Z,61.77
2023-04-14T20:34:13.692Z,80.33
2023-04-14T20:36:45.134Z,78.23
2023-04-14T20:39:14.136Z,70.67
2023-04-14T20:41:43.249Z,66.43
2023-04-14T20:44:17.317Z,66.23
2023-04-14T20:46:46.910Z,75.03
2023-04-14T20:49:15.846Z,95.47
2023-04-14T20:51:47.143Z,89.23
2023-04-14T20:54:16.635Z,92.13
2023-04-14T20:56:45.750Z,79.53
2023-04-14T20:59:16.801Z,73.10
2023-04-14T21:01:48.657Z,55.70
2023-04-14T21:04:19.479Z,54.37
2023-04-14T21:06:49.374Z,59.40
2023-04-14T21:09:18.876Z,70.83
2023-04-14T21:11:47.979Z,58.30
2023-04-14T21:15:30.528Z,78.07
2023-04-14T21:17:28.003Z,101.13
2023-04-14T21:19:57.725Z,78.50
2023-04-14T21:22:58.778Z,83.10
2023-04-14T21:25:33.933Z,87.60
2023-04-14T21:28:05.330Z,101.20
2023-04-14T21:30:38.490Z,89.40
2023-04-14T21:33:08.950Z,101.33
2023-04-14T21:35:38.236Z,94.83
2023-04-14T21:38:07.846Z,83.30
2023-04-14T21:40:37.445Z,102.30
2023-04-14T21:43:08.109Z,109.07
2023-04-14T21:45:39.782Z,96.93
2023-04-14T21:48:09.081Z,92.27
2023-04-14T21:50:40.354Z,94.67
2023-04-14T21:53:10.886Z,68.03
2023-04-14T21:55:40.726Z,45.80
2023-04-14T21:58:11.021Z,58.47
2023-04-14T22:00:42.537Z,47.37
2023-04-14T22:03:12.204Z,36.57
2023-04-14T22:05:41.440Z,65.60
2023-04-14T22:08:10.726Z,54.77
2023-04-14T22:10:43.833Z,84.70
2023-04-14T22:13:13.267Z,114.40
2023-04-14T22:15:45.052Z,124.60
2023-04-14T22:18:14.106Z,127.57
2023-04-14T22:20:43.199Z,126.30
2023-04-14T22:23:12.526Z,123.53
2023-04-14T22:25:41.619Z,111.97
2023-04-14T22:28:11.817Z,172.20
2023-04-14T22:31:01.310Z,121.60
2023-04-14T22:33:30.445Z,90.97
2023-04-14T22:36:01.623Z,90.20
2023-04-14T22:38:31.095Z,103.07
2023-04-14T22:41:00.171Z,149.37
2023-04-14T22:43:29.997Z,136.30
2023-04-14T22:46:00.615Z,128.13
2023-04-14T22:48:29.604Z,91.13
2023-04-14T22:50:58.617Z,91.33
2023-04-14T22:53:30.589Z,73.30
2023-04-14T22:55:59.561Z,61.37
2023-04-14T22:58:32.709Z,103.90
2023-04-14T23:01:12.039Z,103.43
2023-04-14T23:03:51.272Z,64.70
2023-04-14T23:06:28.857Z,48.57
2023-04-14T23:08:57.985Z,42.33
2023-04-14T23:11:27.323Z,50.43
2023-04-14T23:13:56.851Z,34.77
2023-04-14T23:16:27.862Z,66.37
2023-04-14T23:18:58.361Z,38.07
2023-04-14T23:21:28.265Z,29.30
2023-04-14T23:23:58.326Z,28.87
2023-04-14T23:26:28.722Z,28.73
2023-04-14T23:28:58.020Z,26.90
2023-04-14T23:31:29.002Z,32.57
2023-04-14T23:33:57.988Z,30.90
2023-04-14T23:36:27.011Z,29.57
2023-04-14T23:38:56.347Z,30.37
2023-04-14T23:41:25.635Z,31.50
2023-04-14T23:43:54.798Z,39.27
2023-04-14T23:46:24.043Z,54.13
2023-04-14T23:48:54.594Z,63.70
2023-04-14T23:51:24.787Z,74.57
2023-04-14T23:53:53.903Z,61.83
2023-04-14T23:56:22.924Z,68.77
2023-04-14T23:58:52.289Z,101.23
